Time;durP1;ratioP1;P1;durP2;ratioP2;P2;SDS_P1;SDS_P2;PMS_P1;PMS_P2;Temp;Humidity;BMP_temperature;BMP_pressure;BME280_temperature;BME280_humidity;BME280_pressure;Samples;Min_cycle;Max_cycle;Signal;HPM_P1;HPM_P2
2021/07/18 00:01:31;;;;;;;4.53;1.27;;;17.00;99.90;;;;;;4873015;29;20280;-82
2021/07/18 00:03:56;;;;;;;4.30;1.27;;;16.90;99.90;;;;;;4866355;29;20554;-82
2021/07/18 00:06:22;;;;;;;3.67;0.95;;;16.90;99.90;;;;;;4842613;29;20030;-83
2021/07/18 00:08:48;;;;;;;6.60;1.30;;;16.90;99.90;;;;;;4874323;29;20030;-83
2021/07/18 00:11:14;;;;;;;2.75;1.17;;;16.90;99.90;;;;;;4843902;29;20191;-83
2021/07/18 00:13:43;;;;;;;4.18;0.80;;;16.80;99.90;;;;;;4857418;29;20029;-83
2021/07/18 00:16:09;;;;;;;2.97;1.20;;;16.80;99.90;;;;;;4847540;29;20037;-83
2021/07/18 00:18:34;;;;;;;4.88;1.13;;;16.80;99.90;;;;;;4852185;29;20064;-83
2021/07/18 00:21:00;;;;;;;3.67;1.15;;;16.80;99.90;;;;;;4844235;29;20124;-83
2021/07/18 00:23:26;;;;;;;3.53;1.02;;;16.80;99.90;;;;;;4842613;29;20057;-82
2021/07/18 00:25:51;;;;;;;2.75;0.90;;;16.70;99.90;;;;;;4879239;29;20097;-83
2021/07/18 00:28:23;;;;;;;2.70;0.95;;;16.70;99.90;;;;;;4867555;29;20026;-83
2021/07/18 00:30:49;;;;;;;2.95;0.82;;;16.70;99.90;;;;;;4869885;29;20089;-83
2021/07/18 00:33:14;;;;;;;2.38;0.90;;;16.70;99.90;;;;;;4849205;29;20030;-83
2021/07/18 00:35:40;;;;;;;3.65;1.13;;;16.70;99.90;;;;;;4874071;29;20025;-83
2021/07/18 00:38:06;;;;;;;4.55;0.80;;;16.60;99.90;;;;;;4843363;29;20038;-83
2021/07/18 00:40:32;;;;;;;2.65;1.08;;;16.60;99.90;;;;;;4858445;29;20037;-83
2021/07/18 00:42:57;;;;;;;2.97;0.88;;;16.50;99.90;;;;;;4857841;29;20049;-83
2021/07/18 00:46:04;;;;;;;2.38;1.00;;;16.50;99.90;;;;;;4857182;29;20045;-83
2021/07/18 00:48:30;;;;;;;1.95;0.80;;;16.50;99.90;;;;;;4793726;30;20055;-83
2021/07/18 00:50:56;;;;;;;3.55;1.20;;;16.40;99.90;;;;;;4798517;30;20051;-83
2021/07/18 00:53:22;;;;;;;4.88;0.90;;;16.30;99.90;;;;;;4798400;30;20101;-83
2021/07/18 00:55:50;;;;;;;2.53;1.25;;;16.30;99.90;;;;;;4798369;30;20498;-83
2021/07/18 00:58:16;;;;;;;2.17;0.82;;;16.30;99.90;;;;;;4798363;30;20039;-83
2021/07/18 01:00:41;;;;;;;3.78;0.90;;;16.20;99.90;;;;;;4783042;30;20539;-83
2021/07/18 01:03:08;;;;;;;3.72;0.90;;;16.20;99.90;;;;;;4783341;30;20107;-83
2021/07/18 01:05:34;;;;;;;2.40;0.73;;;16.20;99.90;;;;;;4783238;30;20083;-83
2021/07/18 01:08:01;;;;;;;2.42;1.10;;;16.10;99.90;;;;;;4783259;30;20039;-83
2021/07/18 01:10:26;;;;;;;3.65;0.95;;;16.00;99.90;;;;;;4783135;30;20039;-83
2021/07/18 01:12:52;;;;;;;3.08;0.93;;;16.00;99.90;;;;;;4783197;30;20067;-83
2021/07/18 01:15:18;;;;;;;2.40;0.98;;;16.00;99.90;;;;;;4788361;29;20680;-82
2021/07/18 01:17:43;;;;;;;3.45;0.77;;;16.10;99.90;;;;;;4815963;29;20163;-83
2021/07/18 01:20:11;;;;;;;2.75;0.80;;;16.00;99.90;;;;;;4815933;29;20080;-83
2021/07/18 01:22:38;;;;;;;2.63;1.10;;;16.00;99.90;;;;;;4800924;29;20038;-83
2021/07/18 01:25:06;;;;;;;2.60;0.93;;;16.00;99.90;;;;;;4819601;29;20082;-83
2021/07/18 01:27:32;;;;;;;3.42;0.98;;;15.90;99.90;;;;;;4856599;29;20030;-82
2021/07/18 01:29:59;;;;;;;4.85;1.05;;;15.90;99.90;;;;;;4871692;29;20105;-83
2021/07/18 01:32:24;;;;;;;3.65;1.20;;;15.80;99.90;;;;;;4872014;29;20040;-83
2021/07/18 01:34:50;;;;;;;4.63;1.08;;;15.70;99.90;;;;;;4871860;29;20128;-83
2021/07/18 01:37:17;;;;;;;3.25;0.93;;;15.70;99.90;;;;;;4856720;29;20061;-83
2021/07/18 01:39:43;;;;;;;4.07;0.95;;;15.60;99.90;;;;;;4856324;29;20037;-83
2021/07/18 01:42:09;;;;;;;3.88;1.13;;;15.70;99.90;;;;;;4856632;29;20030;-83
2021/07/18 01:44:35;;;;;;;2.75;1.15;;;15.80;99.90;;;;;;4865957;29;20051;-82
2021/07/18 01:47:02;;;;;;;4.88;1.27;;;15.60;99.90;;;;;;4888801;29;20072;-82
2021/07/18 01:49:27;;;;;;;4.28;1.20;;;15.60;99.90;;;;;;4874556;29;20049;-82
2021/07/18 01:51:53;;;;;;;3.17;1.75;;;15.60;99.90;;;;;;4890072;29;20033;-82
2021/07/18 01:54:19;;;;;;;2.70;1.30;;;15.60;99.90;;;;;;4874552;29;20048;-81
2021/07/18 01:56:44;;;;;;;2.53;0.93;;;15.50;99.90;;;;;;4874600;29;20056;-83
2021/07/18 01:59:12;;;;;;;2.08;0.90;;;15.50;99.90;;;;;;4874531;29;20037;-82
2021/07/18 02:01:37;;;;;;;3.15;0.95;;;15.40;99.90;;;;;;4874471;29;20478;-83
2021/07/18 02:04:03;;;;;;;1.88;0.95;;;15.50;99.90;;;;;;4890146;29;20037;-83
2021/07/18 02:06:31;;;;;;;6.70;1.10;;;15.40;99.90;;;;;;4890125;29;20484;-83
2021/07/18 02:08:59;;;;;;;2.10;0.88;;;15.40;99.90;;;;;;4874400;29;20554;-82
2021/07/18 02:11:25;;;;;;;4.55;0.95;;;15.40;99.90;;;;;;4874418;29;20065;-82
2021/07/18 02:13:53;;;;;;;2.28;1.30;;;15.40;99.90;;;;;;4874421;29;20061;-83
2021/07/18 02:16:20;;;;;;;2.53;1.02;;;15.50;99.90;;;;;;4874245;29;20101;-83
2021/07/18 02:18:47;;;;;;;2.05;1.00;;;15.50;99.90;;;;;;4874214;29;20037;-82
2021/07/18 02:21:13;;;;;;;2.78;0.90;;;15.40;99.90;;;;;;4874316;29;20036;-82
2021/07/18 02:23:39;;;;;;;2.45;1.02;;;15.40;99.90;;;;;;4874403;29;20111;-83
2021/07/18 02:26:05;;;;;;;1.88;0.73;;;15.40;99.90;;;;;;4874391;29;20045;-81
2021/07/18 02:28:31;;;;;;;3.25;1.05;;;15.40;99.90;;;;;;4891267;29;20033;-82
2021/07/18 02:30:57;;;;;;;4.05;1.20;;;15.40;99.90;;;;;;4874238;29;20033;-82
2021/07/18 02:33:23;;;;;;;4.43;1.10;;;15.30;99.90;;;;;;4859107;29;20025;-82
2021/07/18 02:35:49;;;;;;;1.88;1.00;;;15.20;99.90;;;;;;4862399;29;20045;-82
2021/07/18 02:38:14;;;;;;;1.70;0.82;;;15.20;99.90;;;;;;4862390;29;20061;-83
2021/07/18 02:40:40;;;;;;;2.92;1.10;;;15.30;99.90;;;;;;4877687;29;20062;-82
2021/07/18 02:43:06;;;;;;;2.55;0.75;;;15.20;99.90;;;;;;4862371;29;20039;-83
2021/07/18 02:45:32;;;;;;;1.83;0.70;;;15.30;99.90;;;;;;4862168;29;20197;-83
2021/07/18 02:47:58;;;;;;;2.47;0.85;;;15.20;99.90;;;;;;4883978;29;20162;-82
2021/07/18 02:50:26;;;;;;;4.85;1.00;;;15.20;99.90;;;;;;4877607;29;20033;-82
2021/07/18 02:52:52;;;;;;;2.30;1.05;;;15.20;99.90;;;;;;4862152;29;20630;-82
2021/07/18 02:55:19;;;;;;;4.30;1.20;;;15.20;99.90;;;;;;4877663;29;20163;-82
2021/07/18 02:57:45;;;;;;;3.13;1.38;;;15.20;99.90;;;;;;4877607;29;20069;-82
2021/07/18 03:00:16;;;;;;;2.25;1.20;;;15.20;99.90;;;;;;4877701;29;20033;-82
2021/07/18 03:02:43;;;;;;;5.60;1.30;;;15.10;99.90;;;;;;4893896;29;20040;-82
2021/07/18 03:05:13;;;;;;;4.68;1.95;;;15.20;99.90;;;;;;4893035;29;20567;-83
2021/07/18 03:07:39;;;;;;;4.10;1.70;;;15.20;99.90;;;;;;4877151;29;20443;-82
2021/07/18 03:10:07;;;;;;;3.10;1.52;;;15.20;99.90;;;;;;4892778;29;20036;-82
2021/07/18 03:12:33;;;;;;;3.63;1.45;;;15.20;99.90;;;;;;4892790;29;20056;-82
2021/07/18 03:15:00;;;;;;;7.25;2.03;;;15.10;99.90;;;;;;4892789;29;20037;-82
2021/07/18 03:17:26;;;;;;;5.22;1.80;;;15.10;99.90;;;;;;4861273;29;20033;-82
2021/07/18 03:19:52;;;;;;;3.45;1.40;;;15.20;99.90;;;;;;4877086;29;20124;-82
2021/07/18 03:22:18;;;;;;;2.75;1.27;;;15.20;99.90;;;;;;4893823;29;20033;-83
2021/07/18 03:24:44;;;;;;;3.30;1.13;;;15.20;99.90;;;;;;4861645;29;20065;-82
2021/07/18 03:27:09;;;;;;;3.28;1.30;;;15.20;99.90;;;;;;4876841;29;20033;-82
2021/07/18 03:29:35;;;;;;;2.33;1.10;;;15.20;99.90;;;;;;4893741;29;20036;-82
2021/07/18 03:32:01;;;;;;;2.65;0.82;;;15.20;99.90;;;;;;4861439;29;20036;-82
2021/07/18 03:34:27;;;;;;;2.40;1.05;;;15.10;99.90;;;;;;4861634;29;20058;-82
2021/07/18 03:36:52;;;;;;;3.15;1.13;;;15.20;99.90;;;;;;4876641;29;20096;-82
2021/07/18 03:39:18;;;;;;;2.22;1.30;;;15.10;99.90;;;;;;4876727;29;20077;-82
2021/07/18 03:41:43;;;;;;;3.33;0.95;;;15.20;99.90;;;;;;4876852;29;20048;-83
2021/07/18 03:44:09;;;;;;;3.58;2.10;;;15.10;99.90;;;;;;4861297;29;20037;-83
2021/07/18 03:46:35;;;;;;;3.95;1.95;;;15.10;99.90;;;;;;4879119;29;20037;-82
2021/07/18 03:49:00;;;;;;;4.20;2.03;;;15.10;99.90;;;;;;4860713;29;20033;-82
2021/07/18 03:51:26;;;;;;;3.92;2.38;;;15.10;99.90;;;;;;4879976;29;20044;-81
2021/07/18 03:53:51;;;;;;;3.38;1.60;;;15.10;99.90;;;;;;4876507;29;20040;-82
2021/07/18 03:56:17;;;;;;;4.78;2.80;;;15.10;99.90;;;;;;4876522;29;20036;-82
2021/07/18 03:58:43;;;;;;;6.68;4.00;;;15.00;99.90;;;;;;4875835;29;20040;-82
2021/07/18 04:01:10;;;;;;;5.68;2.58;;;15.10;99.90;;;;;;4875581;29;20029;-82
2021/07/18 04:03:36;;;;;;;5.90;4.13;;;15.10;99.90;;;;;;4875442;29;20068;-82
2021/07/18 04:06:03;;;;;;;6.35;3.58;;;15.10;99.90;;;;;;4860213;29;20041;-83
2021/07/18 04:08:29;;;;;;;5.35;2.53;;;15.10;99.90;;;;;;4875326;29;20497;-82
2021/07/18 04:10:55;;;;;;;6.70;3.30;;;15.10;99.90;;;;;;4875490;29;20041;-83
2021/07/18 04:13:20;;;;;;;7.78;3.25;;;15.10;99.90;;;;;;4875423;29;20037;-82
2021/07/18 04:15:46;;;;;;;7.65;3.10;;;15.20;99.90;;;;;;4872029;29;20031;-83
2021/07/18 04:18:11;;;;;;;5.32;2.80;;;15.20;99.90;;;;;;4856628;29;20162;-82
2021/07/18 04:20:38;;;;;;;5.53;3.00;;;15.30;99.90;;;;;;4856965;29;20033;-83
2021/07/18 04:23:10;;;;;;;6.03;1.77;;;15.30;99.90;;;;;;4856833;29;20037;-82
2021/07/18 04:25:36;;;;;;;7.38;1.75;;;15.30;99.90;;;;;;4872305;29;20047;-82
2021/07/18 04:28:02;;;;;;;5.47;1.20;;;15.40;99.90;;;;;;4856705;29;20025;-82
2021/07/18 04:30:27;;;;;;;7.10;1.70;;;15.40;99.90;;;;;;4873296;29;20396;-82
2021/07/18 04:32:53;;;;;;;12.65;1.10;;;15.50;99.90;;;;;;4872161;29;20105;-82
2021/07/18 04:35:20;;;;;;;11.05;1.70;;;15.50;99.90;;;;;;4856450;29;20033;-82
2021/07/18 04:37:45;;;;;;;9.50;1.52;;;15.60;99.90;;;;;;4871899;29;20045;-82
2021/07/18 04:40:12;;;;;;;17.00;1.80;;;15.60;99.90;;;;;;4856467;29;20049;-82
2021/07/18 04:42:38;;;;;;;7.03;1.23;;;15.70;99.90;;;;;;4872065;29;20068;-82
2021/07/18 04:45:05;;;;;;;6.70;2.40;;;15.80;99.90;;;;;;4871594;29;20041;-82
2021/07/18 04:47:30;;;;;;;12.48;3.83;;;15.90;99.90;;;;;;4871683;29;20064;-81
2021/07/18 04:49:56;;;;;;;6.97;3.42;;;15.90;99.90;;;;;;4873308;29;20159;-81
2021/07/18 04:52:22;;;;;;;20.67;5.32;;;16.00;99.90;;;;;;4890201;29;20033;-81
2021/07/18 04:54:47;;;;;;;11.88;4.72;;;16.10;99.90;;;;;;4874684;29;20033;-81
2021/07/18 04:57:13;;;;;;;8.80;3.63;;;16.10;99.90;;;;;;4873980;29;20036;-82
2021/07/18 04:59:39;;;;;;;10.68;5.88;;;16.10;99.90;;;;;;4858863;29;20041;-81
2021/07/18 05:02:04;;;;;;;14.48;5.85;;;16.20;99.90;;;;;;4874526;29;20044;-81
2021/07/18 05:04:30;;;;;;;10.40;4.35;;;16.30;99.90;;;;;;4858609;29;20044;-81
2021/07/18 05:06:56;;;;;;;10.88;6.10;;;16.30;99.90;;;;;;4856643;29;20501;-81
2021/07/18 05:09:21;;;;;;;9.25;4.00;;;16.40;99.90;;;;;;4874231;29;20064;-81
2021/07/18 05:11:47;;;;;;;12.23;5.93;;;16.40;99.90;;;;;;4874477;29;20032;-81
2021/07/18 05:14:12;;;;;;;11.05;5.63;;;16.50;99.90;;;;;;4874048;29;20056;-82
2021/07/18 05:16:38;;;;;;;11.77;6.72;;;16.50;99.90;;;;;;4874074;29;20086;-82
2021/07/18 05:19:04;;;;;;;12.32;5.22;;;16.50;99.90;;;;;;4873727;29;20041;-83
2021/07/18 05:21:30;;;;;;;10.07;5.57;;;16.60;99.90;;;;;;4874293;29;20045;-82
2021/07/18 05:23:55;;;;;;;9.43;3.90;;;16.70;99.90;;;;;;4858899;29;20120;-81
2021/07/18 05:26:21;;;;;;;10.15;5.15;;;16.80;99.90;;;;;;4874172;29;20049;-82
2021/07/18 05:28:46;;;;;;;10.75;5.55;;;16.90;99.90;;;;;;4858881;29;20036;-82
2021/07/18 05:31:12;;;;;;;11.15;5.90;;;17.00;99.90;;;;;;4858655;29;20386;-83
2021/07/18 05:33:38;;;;;;;10.50;5.65;;;17.00;99.90;;;;;;4858542;29;20261;-82
2021/07/18 05:36:04;;;;;;;9.10;5.57;;;17.10;99.90;;;;;;4858425;29;20033;-83
2021/07/18 05:38:29;;;;;;;8.40;5.05;;;17.20;99.90;;;;;;4858600;29;20041;-84
2021/07/18 05:40:55;;;;;;;7.68;4.82;;;17.30;99.90;;;;;;4858684;29;20120;-82
2021/07/18 05:43:21;;;;;;;6.75;4.47;;;17.40;99.90;;;;;;4874209;29;20037;-83
2021/07/18 05:46:09;;;;;;;8.65;5.40;;;17.50;99.90;;;;;;4873829;29;20137;-84
2021/07/18 05:48:35;;;;;;;10.77;6.53;;;17.50;99.90;;;;;;4832105;29;20054;-83
2021/07/18 05:51:01;;;;;;;7.25;5.30;;;17.70;99.90;;;;;;4842925;29;20428;-83
2021/07/18 05:53:26;;;;;;;6.22;3.85;;;17.70;99.90;;;;;;4832265;29;20042;-83
2021/07/18 05:55:52;;;;;;;5.95;4.43;;;17.80;99.90;;;;;;4833294;29;20042;-84
2021/07/18 05:58:17;;;;;;;4.80;3.28;;;18.00;99.90;;;;;;4817945;29;20035;-84
2021/07/18 06:00:43;;;;;;;5.85;3.63;;;18.00;99.90;;;;;;4833322;29;20058;-84
2021/07/18 06:03:09;;;;;;;6.07;3.45;;;18.20;99.90;;;;;;4833196;29;20102;-83
2021/07/18 06:05:35;;;;;;;6.18;3.88;;;18.30;99.90;;;;;;4817232;29;20086;-85
2021/07/18 06:08:02;;;;;;;5.78;3.60;;;18.30;99.90;;;;;;4833885;29;20038;-84
2021/07/18 06:10:28;;;;;;;5.45;2.95;;;18.50;99.90;;;;;;4814602;29;20069;-84
2021/07/18 06:12:53;;;;;;;5.07;3.10;;;18.70;99.90;;;;;;4820456;29;20039;-84
2021/07/18 06:15:19;;;;;;;5.63;3.88;;;18.70;99.90;;;;;;4826398;29;20479;-84
2021/07/18 06:17:44;;;;;;;3.45;2.72;;;18.70;99.90;;;;;;4854737;29;20058;-84
2021/07/18 06:20:10;;;;;;;4.65;2.70;;;18.80;99.90;;;;;;4854393;29;20113;-84
2021/07/18 06:22:37;;;;;;;5.95;3.22;;;18.90;99.90;;;;;;4854769;29;20034;-84
2021/07/18 06:25:04;;;;;;;4.65;2.65;;;19.00;99.90;;;;;;4865986;29;20097;-82
2021/07/18 06:27:30;;;;;;;4.63;2.60;;;19.00;99.90;;;;;;4873864;29;20037;-84
2021/07/18 06:29:56;;;;;;;4.10;2.40;;;19.10;99.90;;;;;;4858878;29;20044;-84
2021/07/18 06:32:21;;;;;;;5.38;2.88;;;19.30;99.90;;;;;;4875532;29;20043;-84
2021/07/18 06:34:48;;;;;;;3.55;2.03;;;19.40;99.90;;;;;;4874221;29;20037;-84
2021/07/18 06:37:14;;;;;;;2.35;1.75;;;19.70;99.90;;;;;;4858574;29;20033;-84
2021/07/18 06:39:40;;;;;;;2.40;1.40;;;19.90;99.90;;;;;;4873941;29;20049;-83
2021/07/18 06:42:06;;;;;;;4.20;1.95;;;19.90;99.90;;;;;;4874115;29;20033;-84
2021/07/18 06:44:31;;;;;;;2.40;1.40;;;19.80;99.90;;;;;;4880039;29;20129;-84
2021/07/18 06:46:57;;;;;;;2.85;1.13;;;20.00;99.90;;;;;;4876565;29;20053;-84
2021/07/18 06:49:22;;;;;;;2.08;1.13;;;20.10;99.90;;;;;;4877286;29;20033;-84
2021/07/18 06:51:48;;;;;;;2.55;1.10;;;20.20;99.90;;;;;;4877241;29;20029;-83
2021/07/18 06:54:14;;;;;;;2.10;0.93;;;20.40;99.90;;;;;;4861167;29;20033;-84
2021/07/18 06:56:39;;;;;;;2.15;0.80;;;20.60;99.90;;;;;;4870435;29;20058;-83
2021/07/18 06:59:05;;;;;;;1.77;0.75;;;20.70;99.90;;;;;;4876779;29;20040;-84
2021/07/18 07:01:30;;;;;;;2.65;1.38;;;20.70;99.90;;;;;;4876625;29;20057;-84
2021/07/18 07:03:56;;;;;;;2.55;1.20;;;20.60;99.90;;;;;;4861445;29;20033;-83
2021/07/18 07:06:22;;;;;;;2.33;0.80;;;20.60;99.90;;;;;;4876780;29;20176;-83
2021/07/18 07:08:47;;;;;;;1.60;0.80;;;20.90;99.90;;;;;;4876412;29;20041;-84
2021/07/18 07:11:14;;;;;;;2.47;0.80;;;20.90;99.90;;;;;;4861351;29;20105;-83
2021/07/18 07:13:39;;;;;;;1.27;0.57;;;21.00;99.90;;;;;;4876836;29;20041;-83
2021/07/18 07:16:05;;;;;;;1.25;0.57;;;21.10;99.90;;;;;;4864908;29;20105;-83
2021/07/18 07:18:31;;;;;;;1.52;0.60;;;21.30;99.90;;;;;;4819008;29;20065;-83
2021/07/18 07:20:57;;;;;;;2.72;0.60;;;21.10;99.90;;;;;;4880469;29;20393;-82
2021/07/18 07:23:22;;;;;;;2.58;0.70;;;21.10;99.90;;;;;;4874561;29;20053;-82
2021/07/18 07:25:48;;;;;;;1.23;0.60;;;21.40;99.90;;;;;;4883875;29;20053;-83
2021/07/18 07:28:14;;;;;;;1.70;0.73;;;21.50;99.90;;;;;;4892978;29;20099;-83
2021/07/18 07:30:39;;;;;;;2.65;1.02;;;21.10;99.90;;;;;;4891910;29;20037;-82
2021/07/18 07:33:05;;;;;;;2.00;0.60;;;21.20;99.90;;;;;;4892073;29;20141;-82
2021/07/18 07:35:31;;;;;;;2.00;0.60;;;21.30;99.90;;;;;;4891923;29;20191;-82
2021/07/18 07:37:56;;;;;;;1.00;0.40;;;21.50;99.90;;;;;;4893255;29;20025;-81
2021/07/18 07:40:22;;;;;;;1.20;0.50;;;21.50;99.90;;;;;;4891712;29;20137;-83
2021/07/18 07:42:48;;;;;;;1.83;0.47;;;21.60;99.90;;;;;;4891848;29;20037;-83
2021/07/18 07:45:14;;;;;;;1.38;0.55;;;21.60;99.90;;;;;;4891869;29;20569;-83
2021/07/18 07:47:41;;;;;;;1.33;0.55;;;21.70;99.90;;;;;;4860169;29;20470;-83
2021/07/18 07:50:08;;;;;;;0.98;0.45;;;21.80;99.90;;;;;;4891530;29;20105;-83
2021/07/18 07:52:34;;;;;;;0.88;0.40;;;21.90;99.90;;;;;;4882537;29;20041;-83
2021/07/18 07:55:01;;;;;;;3.35;0.40;;;22.30;99.90;;;;;;4859142;29;20032;-84
2021/07/18 07:57:27;;;;;;;0.88;0.40;;;22.30;99.90;;;;;;4875888;29;20037;-82
2021/07/18 07:59:53;;;;;;;2.03;0.40;;;22.40;99.90;;;;;;4860523;29;20029;-82
2021/07/18 08:02:18;;;;;;;0.82;0.40;;;22.50;99.90;;;;;;4892417;29;20046;-82
2021/07/18 08:04:44;;;;;;;1.02;0.40;;;22.40;99.90;;;;;;4876105;29;20045;-82
2021/07/18 08:07:10;;;;;;;1.67;0.45;;;22.70;99.90;;;;;;4872124;29;20072;-84
2021/07/18 08:09:36;;;;;;;1.13;0.47;;;22.30;99.90;;;;;;4876183;29;20036;-83
2021/07/18 08:12:01;;;;;;;1.83;0.47;;;22.10;99.90;;;;;;4891152;29;20044;-82
2021/07/18 08:14:27;;;;;;;1.13;0.50;;;22.40;99.90;;;;;;4890800;29;20072;-82
2021/07/18 08:16:53;;;;;;;1.05;0.40;;;22.50;99.90;;;;;;4887456;29;20045;-83
2021/07/18 08:19:18;;;;;;;1.73;0.40;;;22.60;99.90;;;;;;4887594;29;20053;-84
2021/07/18 08:21:44;;;;;;;1.55;0.50;;;22.90;99.90;;;;;;4857115;29;20037;-83
2021/07/18 08:24:12;;;;;;;1.42;0.40;;;22.70;99.90;;;;;;4856858;29;20049;-81
2021/07/18 08:26:40;;;;;;;1.23;0.40;;;22.80;99.90;;;;;;4879312;29;20036;-81
2021/07/18 08:29:06;;;;;;;1.88;0.60;;;22.90;99.90;;;;;;4874363;29;20037;-81
2021/07/18 08:31:32;;;;;;;1.85;0.55;;;22.90;99.90;;;;;;4888518;29;20029;-81
2021/07/18 08:33:57;;;;;;;1.63;0.50;;;23.40;99.90;;;;;;4890207;29;20485;-81
2021/07/18 08:36:23;;;;;;;1.25;0.50;;;23.00;99.90;;;;;;4890485;29;20141;-81
2021/07/18 08:38:49;;;;;;;1.60;0.40;;;23.00;99.90;;;;;;4891258;29;20424;-81
2021/07/18 08:41:15;;;;;;;1.63;0.40;;;23.20;99.90;;;;;;4890570;29;20068;-82
2021/07/18 08:43:40;;;;;;;1.20;0.50;;;23.20;99.90;;;;;;4890285;29;20089;-82
2021/07/18 08:46:26;;;;;;;1.00;0.50;;;23.10;99.90;;;;;;4874495;29;20067;-81
2021/07/18 08:48:54;;;;;;;0.90;0.40;;;23.30;99.90;;;;;;4851289;29;20065;-81
2021/07/18 08:51:20;;;;;;;1.08;0.40;;;23.40;99.90;;;;;;4852262;29;20061;-81
2021/07/18 08:53:51;;;;;;;1.48;0.60;;;23.50;99.90;;;;;;4833307;29;20047;-80
2021/07/18 08:56:20;;;;;;;1.20;0.50;;;23.50;99.90;;;;;;4834024;29;20077;-81
2021/07/18 08:58:45;;;;;;;2.53;0.50;;;23.70;99.90;;;;;;4833665;29;20039;-81
2021/07/18 09:01:13;;;;;;;3.05;0.60;;;23.80;99.90;;;;;;4849017;29;20056;-82
2021/07/18 09:03:39;;;;;;;1.38;0.57;;;23.70;99.90;;;;;;4804810;29;20129;-81
2021/07/18 09:06:09;;;;;;;1.63;0.50;;;23.60;99.90;;;;;;4851482;29;20058;-82
2021/07/18 09:08:46;;;;;;;2.28;0.40;;;23.70;99.90;;;;;;4850945;29;20045;-81
2021/07/18 09:11:33;;;;;;;1.30;0.50;;;24.00;99.90;;;;;;4850489;29;20038;-81
2021/07/18 09:14:04;;;;;;;2.58;0.60;;;24.40;99.90;;;;;;4852256;29;20037;-82
2021/07/18 09:16:43;;;;;;;2.72;0.60;;;24.30;99.90;;;;;;4852313;29;20034;-83
2021/07/18 09:19:18;;;;;;;2.77;0.70;;;24.00;99.90;;;;;;4854472;29;20152;-82
2021/07/18 09:21:51;;;;;;;2.63;0.60;;;24.00;99.90;;;;;;4861373;29;20403;-81
2021/07/18 09:24:24;;;;;;;3.90;0.70;;;24.20;99.90;;;;;;4849231;29;20049;-81
2021/07/18 09:27:11;;;;;;;1.60;0.65;;;24.20;99.90;;;;;;4839219;29;20137;-82
2021/07/18 09:29:51;;;;;;;2.75;0.80;;;24.20;99.90;;;;;;4847300;29;20037;-81
2021/07/18 09:32:24;;;;;;;2.92;0.60;;;24.40;99.90;;;;;;4853090;29;20034;-82
2021/07/18 09:34:59;;;;;;;2.35;0.85;;;24.60;99.90;;;;;;4851931;29;20076;-81
2021/07/18 09:37:30;;;;;;;4.55;0.55;;;24.70;99.90;;;;;;4885723;29;20213;-83
2021/07/18 09:40:15;;;;;;;1.65;0.50;;;24.60;99.90;;;;;;4858279;29;20029;-82
2021/07/18 09:42:44;;;;;;;2.28;0.80;;;24.90;99.90;;;;;;4866638;29;20030;-82
2021/07/18 09:45:14;;;;;;;6.47;0.80;;;24.60;99.90;;;;;;4839516;29;20046;-82
2021/07/18 09:48:03;;;;;;;2.22;1.00;;;24.70;99.90;;;;;;4845251;29;20054;-82
2021/07/18 09:50:35;;;;;;;4.93;0.90;;;24.90;99.90;;;;;;4835194;29;20033;-82
2021/07/18 09:53:16;;;;;;;2.33;0.60;;;24.70;99.90;;;;;;4885380;29;20046;-81
2021/07/18 09:56:10;;;;;;;2.08;0.70;;;24.70;99.90;;;;;;4877020;29;20047;-82
2021/07/18 09:58:51;;;;;;;2.42;0.80;;;24.80;99.90;;;;;;4866780;29;20033;-81
2021/07/18 10:01:18;;;;;;;2.42;0.60;;;25.10;99.90;;;;;;4886699;29;20033;-82
2021/07/18 10:03:52;;;;;;;5.07;0.60;;;24.90;99.90;;;;;;4871150;29;20581;-81
2021/07/18 10:06:20;;;;;;;2.92;0.68;;;25.10;99.90;;;;;;4885976;29;20045;-82
2021/07/18 10:08:46;;;;;;;2.15;0.60;;;25.30;99.90;;;;;;4880039;29;20073;-82
2021/07/18 10:11:15;;;;;;;2.40;0.52;;;25.40;99.90;;;;;;4888680;29;20037;-82
2021/07/18 10:13:43;;;;;;;3.10;0.88;;;25.30;99.90;;;;;;4859038;29;20037;-81
2021/07/18 10:16:10;;;;;;;1.80;0.60;;;25.10;99.90;;;;;;4863448;29;20044;-82
2021/07/18 10:18:38;;;;;;;1.85;0.60;;;25.10;99.90;;;;;;4886342;29;20036;-82
2021/07/18 10:21:06;;;;;;;2.28;0.52;;;25.10;99.90;;;;;;4878057;29;20033;-84
2021/07/18 10:23:34;;;;;;;2.00;0.50;;;25.40;99.90;;;;;;4868608;29;20135;-82
2021/07/18 10:26:00;;;;;;;2.47;0.63;;;25.70;99.90;;;;;;4882009;29;20041;-81
2021/07/18 10:28:27;;;;;;;3.05;0.55;;;25.80;99.90;;;;;;4870809;29;20025;-81
2021/07/18 10:31:01;;;;;;;3.03;0.50;;;25.60;99.90;;;;;;4884272;29;20064;-81
2021/07/18 10:33:28;;;;;;;2.13;0.50;;;25.80;99.90;;;;;;4898411;29;20506;-81
2021/07/18 10:35:55;;;;;;;2.33;0.55;;;26.10;99.90;;;;;;4890894;29;20036;-80
2021/07/18 10:38:23;;;;;;;2.40;0.50;;;25.80;99.90;;;;;;4887926;29;20039;-80
2021/07/18 10:40:52;;;;;;;3.17;0.60;;;26.10;99.90;;;;;;4880477;29;20032;-81
2021/07/18 10:43:49;;;;;;;2.50;0.68;;;26.00;99.90;;;;;;4869945;29;20090;-80
2021/07/18 10:46:36;;;;;;;1.25;0.60;;;26.10;99.90;;;;;;4888505;29;20065;-81
2021/07/18 10:49:03;;;;;;;2.78;0.50;;;26.20;99.90;;;;;;4856811;29;20061;-81
2021/07/18 10:51:36;;;;;;;1.50;0.50;;;25.90;99.90;;;;;;4900981;29;20460;-81
2021/07/18 10:54:17;;;;;;;1.35;0.50;;;26.10;99.90;;;;;;4877740;29;20067;-81
2021/07/18 10:56:54;;;;;;;1.63;0.60;;;26.30;99.90;;;;;;4892402;29;20553;-82
2021/07/18 10:59:38;;;;;;;1.48;0.50;;;26.20;99.90;;;;;;4899980;29;20028;-81
2021/07/18 11:02:05;;;;;;;1.27;0.63;;;26.40;99.90;;;;;;4900046;29;20044;-81
2021/07/18 11:04:45;;;;;;;1.77;0.60;;;26.20;99.90;;;;;;4877969;29;20060;-81
2021/07/18 11:07:20;;;;;;;2.97;0.63;;;26.40;99.90;;;;;;4891067;29;20041;-81
2021/07/18 11:09:52;;;;;;;1.55;0.43;;;26.50;99.90;;;;;;4894834;29;20077;-80
2021/07/18 11:12:25;;;;;;;1.77;0.50;;;26.50;99.90;;;;;;4885132;29;20043;-81
2021/07/18 11:14:51;;;;;;;2.15;0.50;;;26.50;99.90;;;;;;4900057;29;20028;-81
2021/07/18 11:17:28;;;;;;;0.90;0.40;;;26.50;99.90;;;;;;4864855;29;20032;-81
2021/07/18 11:19:59;;;;;;;1.50;0.55;;;26.50;99.90;;;;;;4866560;29;20040;-81
2021/07/18 11:22:58;;;;;;;2.30;0.70;;;26.30;99.90;;;;;;4884838;29;20501;-81
2021/07/18 11:25:42;;;;;;;1.33;0.50;;;26.50;99.90;;;;;;4874049;29;20049;-82
2021/07/18 11:28:36;;;;;;;1.10;0.52;;;26.90;99.90;;;;;;4891922;29;20093;-81
2021/07/18 11:31:13;;;;;;;2.00;0.50;;;26.90;99.90;;;;;;4863139;29;20053;-82
2021/07/18 11:33:45;;;;;;;1.38;0.70;;;26.70;99.90;;;;;;4874242;29;20033;-82
2021/07/18 11:36:13;;;;;;;1.20;0.50;;;26.50;99.90;;;;;;4878721;29;20025;-82
2021/07/18 11:38:39;;;;;;;1.50;0.50;;;26.80;99.90;;;;;;4858896;29;20101;-82
2021/07/18 11:41:24;;;;;;;1.27;0.50;;;26.80;99.90;;;;;;4841987;29;20046;-82
2021/07/18 11:43:53;;;;;;;1.52;0.50;;;26.90;99.90;;;;;;4863157;29;20116;-81
2021/07/18 11:46:22;;;;;;;2.72;0.60;;;27.10;99.90;;;;;;4872603;29;20053;-83
2021/07/18 11:48:53;;;;;;;1.77;0.50;;;26.80;99.90;;;;;;4857292;29;20055;-82
2021/07/18 11:51:20;;;;;;;1.35;0.50;;;26.80;99.90;;;;;;4863995;29;20029;-81
2021/07/18 11:53:47;;;;;;;1.50;0.80;;;27.00;99.90;;;;;;4899088;29;20504;-82
2021/07/18 11:56:19;;;;;;;3.40;0.50;;;26.80;99.90;;;;;;4894412;29;20024;-83
2021/07/18 11:58:44;;;;;;;1.48;0.70;;;26.50;99.90;;;;;;4864903;29;20037;-82
2021/07/18 12:01:10;;;;;;;2.47;0.70;;;26.80;99.90;;;;;;4874380;29;20042;-83
2021/07/18 12:03:36;;;;;;;1.67;0.50;;;27.00;99.90;;;;;;4875804;29;20029;-82
2021/07/18 12:06:01;;;;;;;2.35;0.57;;;27.10;99.90;;;;;;4860064;29;20410;-83
2021/07/18 12:08:27;;;;;;;2.42;0.70;;;27.00;99.90;;;;;;4892454;29;20056;-83
2021/07/18 12:11:03;;;;;;;1.38;0.60;;;26.90;99.90;;;;;;4860297;29;20044;-82
2021/07/18 12:13:33;;;;;;;2.88;0.73;;;26.80;99.90;;;;;;4875540;29;20084;-82
2021/07/18 12:15:59;;;;;;;1.10;0.52;;;26.80;99.90;;;;;;4875322;29;20032;-83
2021/07/18 12:18:27;;;;;;;1.27;0.60;;;27.10;99.90;;;;;;4875593;29;20108;-85
2021/07/18 12:20:52;;;;;;;1.40;0.50;;;26.80;99.90;;;;;;4860159;29;20071;-82
2021/07/18 12:23:20;;;;;;;1.90;0.60;;;26.90;99.90;;;;;;4875564;29;20037;-82
2021/07/18 12:25:56;;;;;;;1.50;0.68;;;27.00;99.90;;;;;;4875457;29;20064;-83
2021/07/18 12:28:25;;;;;;;1.80;0.60;;;26.90;99.90;;;;;;4859880;29;20430;-82
2021/07/18 12:30:51;;;;;;;2.37;0.70;;;27.20;99.90;;;;;;4871011;29;20029;-83
2021/07/18 12:33:21;;;;;;;1.63;0.68;;;27.10;99.90;;;;;;4872794;29;20123;-84
2021/07/18 12:36:05;;;;;;;1.20;0.50;;;27.20;99.90;;;;;;4881236;29;20410;-83
2021/07/18 12:38:31;;;;;;;1.30;0.60;;;27.20;99.90;;;;;;4870727;29;20037;-84
2021/07/18 12:41:03;;;;;;;1.77;0.70;;;27.40;99.90;;;;;;4879303;29;20060;-83
2021/07/18 12:43:29;;;;;;;2.35;0.65;;;27.30;99.90;;;;;;4880781;29;20109;-83
2021/07/18 12:46:22;;;;;;;1.77;0.60;;;27.30;99.90;;;;;;4875211;29;20454;-83
2021/07/18 12:49:08;;;;;;;1.42;0.60;;;27.40;99.90;;;;;;4854405;29;20132;-84
2021/07/18 12:51:34;;;;;;;2.25;0.60;;;27.50;99.90;;;;;;4869977;29;20037;-83